E.r.bristol — A8XQ6 — position and weather

sailwx.info

Track history (hours):
 
Tides and Currents Weather Stations Pressure Air Temp Water Temp Dewpoint Dewpoint Depression Visibility Wind Speed Wind Dir Waves Ship Positions

E.r.bristol

Last reported at 2017-Apr-28 13:37 UTC. Time now 2017-Apr-29 17:31 UTC.
Position N 40°58' E 027°56'.

Length 188 m; draft 10.3 m.

Type: Cargo ship. MMSI: 636092151.

Date/timePositionNaut miles runAvg speedWind from/ knotsBaromVisibWave heightAir tempDewpointWater temp
2017-Apr-28 13:37N 40°58' E 027°56'122 2.9
2017-Apr-26 19:00N 39°45' E 025°49'612.7
2017-Apr-26 18:29N 39°39' E 025°45'3312.7
2017-Apr-26 15:52N 39°09' E 025°25'6512.8
2017-Apr-26 10:49N 38°12' E 024°48'412.9
2017-Apr-26 10:31N 38°08' E 024°45'6212.7
2017-Apr-26 05:37N 37°18' E 023°58'212.5
2017-Apr-26 05:28N 37°17' E 023°56'1212.6
2017-Apr-26 04:33N 37°07' E 023°49'112.7
2017-Apr-26 04:28N 37°06' E 023°48'1412.6
2017-Apr-26 03:21N 36°54' E 023°39'42912.0
2017-Apr-24 15:39N 36°23' E 014°46'212.7
2017-Apr-24 15:29N 36°24' E 014°43'612.6
2017-Apr-24 15:00N 36°24' E 014°35'612.7
2017-Apr-24 14:30N 36°25' E 014°28'1313.1
2017-Apr-24 13:30N 36°27' E 014°12'713.0
2017-Apr-24 13:00N 36°28' E 014°04'713.1
2017-Apr-24 12:30N 36°30' E 013°56'2912.7
2017-Apr-24 10:15N 36°40' E 013°22'1112.4
2017-Apr-24 09:21N 36°43' E 013°09'712.5
2017-Apr-24 08:48N 36°45' E 013°01'512.7
2017-Apr-24 08:26N 36°47' E 012°55'512.7
2017-Apr-24 08:00N 36°48' E 012°48'712.9
2017-Apr-24 07:29N 36°50' E 012°41'912.9
2017-Apr-24 06:47N 36°54' E 012°30'12011.9
2017-Apr-23 20:42N 37°34' E 010°08'312.1
2017-Apr-23 20:26N 37°33' E 010°04'711.9
2017-Apr-23 19:53N 37°32' E 009°56'511.9
2017-Apr-23 19:30N 37°32' E 009°50'912.0
2017-Apr-23 18:45N 37°31' E 009°39'312.5
2017-Apr-23 18:30N 37°30' E 009°35'612.7
2017-Apr-23 18:00N 37°28' E 009°27'1012.5
2017-Apr-23 17:11N 37°26' E 009°15'612.3
2017-Apr-23 16:41N 37°25' E 009°07'212.2
2017-Apr-23 16:30N 37°25' E 009°04'611.8
2017-Apr-23 16:00N 37°23' E 008°57'611.7
2017-Apr-23 15:29N 37°22' E 008°50'611.6
2017-Apr-23 14:59N 37°21' E 008°43'1211.9
2017-Apr-23 14:00N 37°20' E 008°28'21012.4
2017-Apr-22 21:00N 37°09' E 004°04'612.0
2017-Apr-22 20:30N 37°09' E 003°57'612.0
2017-Apr-22 20:00N 37°08' E 003°49'811.9
2017-Apr-22 19:18N 37°07' E 003°39'511.5
2017-Apr-22 18:53N 37°06' E 003°33'  
2017-Apr-20 06:22N 35°60' W 005°08'3 9.2
2017-Apr-20 06:00N 35°59' W 005°13'4 8.9
2017-Apr-20 05:30N 35°58' W 005°18'4 8.1
2017-Apr-20 05:00N 35°58' W 005°23'4 8.3
2017-Apr-20 04:30N 35°57' W 005°28'4 8.3
2017-Apr-20 04:00N 35°56' W 005°33'4 8.5
2017-Apr-20 03:30N 35°55' W 005°38'4 7.7
2017-Apr-20 02:59N 35°55' W 005°43'3 7.3
2017-Apr-20 02:30N 35°55' W 005°47'8 7.7
2017-Apr-20 01:30N 35°55' W 005°57'4 7.6
2017-Apr-20 00:57N 35°55' W 006°02'123 8.1
2017-Apr-19 09:45N 36°23' W 008°31'311.4
2017-Apr-19 09:30N 36°24' W 008°34'711.6
2017-Apr-19 08:56N 36°26' W 008°42'511.6
2017-Apr-19 08:30N 36°27' W 008°48'611.5
2017-Apr-19 08:00N 36°29' W 008°55'711.7
2017-Apr-19 07:25N 36°31' W 009°03'511.4
2017-Apr-19 07:00N 36°32' W 009°09'811.3
2017-Apr-19 06:20N 36°34' W 009°17'6511.8
2017-Apr-19 00:47N 37°35' W 009°47'512.4
2017-Apr-19 00:24N 37°40' W 009°48'1812.2
2017-Apr-18 22:57N 37°58' W 009°53'512.3
2017-Apr-18 22:30N 38°03' W 009°55'611.9
2017-Apr-18 21:58N 38°09' W 009°56'511.7
2017-Apr-18 21:30N 38°14' W 009°58'611.9
2017-Apr-18 21:00N 38°20' W 009°60'611.5
2017-Apr-18 20:30N 38°26' W 010°01'611.5
2017-Apr-18 20:00N 38°31' W 010°03'611.5
2017-Apr-18 19:30N 38°37' W 010°05'611.6
2017-Apr-18 19:00N 38°42' W 010°07'611.7
2017-Apr-18 18:30N 38°48' W 010°07'611.4
2017-Apr-18 18:00N 38°54' W 010°07'611.4
2017-Apr-18 17:30N 38°60' W 010°07'611.2
2017-Apr-18 17:00N 39°05' W 010°06'611.7
2017-Apr-18 16:30N 39°11' W 010°07'611.8
2017-Apr-18 16:00N 39°17' W 010°06'611.7
2017-Apr-18 15:30N 39°23' W 010°06'612.1
2017-Apr-18 15:00N 39°29' W 010°06'612.0
2017-Apr-18 14:30N 39°35' W 010°06'  
Track history (hours):
 
Tides and Currents Weather Stations Pressure Air Temp Water Temp Dewpoint Dewpoint Depression Visibility Wind Speed Wind Dir Waves Ship Positions

E.r.bristol

Last reported at 2017-Apr-28 13:37 UTC. Time now 2017-Apr-29 17:31 UTC.
Position N 40°58' E 027°56'.

Length 188 m; draft 10.3 m.

Type: Cargo ship. MMSI: 636092151.

Date/timePositionNaut miles runAvg speedWind from/ knotsBaromVisibWave heightAir tempDewpointWater temp
2017-Apr-28 13:37N 40°58' E 027°56'122 2.9
2017-Apr-26 19:00N 39°45' E 025°49'612.7
2017-Apr-26 18:29N 39°39' E 025°45'3312.7
2017-Apr-26 15:52N 39°09' E 025°25'6512.8
2017-Apr-26 10:49N 38°12' E 024°48'412.9
2017-Apr-26 10:31N 38°08' E 024°45'6212.7
2017-Apr-26 05:37N 37°18' E 023°58'212.5
2017-Apr-26 05:28N 37°17' E 023°56'1212.6
2017-Apr-26 04:33N 37°07' E 023°49'112.7
2017-Apr-26 04:28N 37°06' E 023°48'1412.6
2017-Apr-26 03:21N 36°54' E 023°39'42912.0
2017-Apr-24 15:39N 36°23' E 014°46'212.7
2017-Apr-24 15:29N 36°24' E 014°43'612.6
2017-Apr-24 15:00N 36°24' E 014°35'612.7
2017-Apr-24 14:30N 36°25' E 014°28'1313.1
2017-Apr-24 13:30N 36°27' E 014°12'713.0
2017-Apr-24 13:00N 36°28' E 014°04'713.1
2017-Apr-24 12:30N 36°30' E 013°56'2912.7
2017-Apr-24 10:15N 36°40' E 013°22'1112.4
2017-Apr-24 09:21N 36°43' E 013°09'712.5
2017-Apr-24 08:48N 36°45' E 013°01'512.7
2017-Apr-24 08:26N 36°47' E 012°55'512.7
2017-Apr-24 08:00N 36°48' E 012°48'712.9
2017-Apr-24 07:29N 36°50' E 012°41'912.9
2017-Apr-24 06:47N 36°54' E 012°30'12011.9
2017-Apr-23 20:42N 37°34' E 010°08'312.1
2017-Apr-23 20:26N 37°33' E 010°04'711.9
2017-Apr-23 19:53N 37°32' E 009°56'511.9
2017-Apr-23 19:30N 37°32' E 009°50'912.0
2017-Apr-23 18:45N 37°31' E 009°39'312.5
2017-Apr-23 18:30N 37°30' E 009°35'612.7
2017-Apr-23 18:00N 37°28' E 009°27'1012.5
2017-Apr-23 17:11N 37°26' E 009°15'612.3
2017-Apr-23 16:41N 37°25' E 009°07'212.2
2017-Apr-23 16:30N 37°25' E 009°04'611.8
2017-Apr-23 16:00N 37°23' E 008°57'611.7
2017-Apr-23 15:29N 37°22' E 008°50'611.6
2017-Apr-23 14:59N 37°21' E 008°43'1211.9
2017-Apr-23 14:00N 37°20' E 008°28'21012.4
2017-Apr-22 21:00N 37°09' E 004°04'612.0
2017-Apr-22 20:30N 37°09' E 003°57'612.0
2017-Apr-22 20:00N 37°08' E 003°49'811.9
2017-Apr-22 19:18N 37°07' E 003°39'511.5
2017-Apr-22 18:53N 37°06' E 003°33'  
2017-Apr-20 06:22N 35°60' W 005°08'3 9.2
2017-Apr-20 06:00N 35°59' W 005°13'4 8.9
2017-Apr-20 05:30N 35°58' W 005°18'4 8.1
2017-Apr-20 05:00N 35°58' W 005°23'4 8.3
2017-Apr-20 04:30N 35°57' W 005°28'4 8.3
2017-Apr-20 04:00N 35°56' W 005°33'4 8.5
2017-Apr-20 03:30N 35°55' W 005°38'4 7.7
2017-Apr-20 02:59N 35°55' W 005°43'3 7.3
2017-Apr-20 02:30N 35°55' W 005°47'8 7.7
2017-Apr-20 01:30N 35°55' W 005°57'4 7.6
2017-Apr-20 00:57N 35°55' W 006°02'123 8.1
2017-Apr-19 09:45N 36°23' W 008°31'311.4
2017-Apr-19 09:30N 36°24' W 008°34'711.6
2017-Apr-19 08:56N 36°26' W 008°42'511.6
2017-Apr-19 08:30N 36°27' W 008°48'611.5
2017-Apr-19 08:00N 36°29' W 008°55'711.7
2017-Apr-19 07:25N 36°31' W 009°03'511.4
2017-Apr-19 07:00N 36°32' W 009°09'811.3
2017-Apr-19 06:20N 36°34' W 009°17'6511.8
2017-Apr-19 00:47N 37°35' W 009°47'512.4
2017-Apr-19 00:24N 37°40' W 009°48'1812.2
2017-Apr-18 22:57N 37°58' W 009°53'512.3
2017-Apr-18 22:30N 38°03' W 009°55'611.9
2017-Apr-18 21:58N 38°09' W 009°56'511.7
2017-Apr-18 21:30N 38°14' W 009°58'611.9
2017-Apr-18 21:00N 38°20' W 009°60'611.5
2017-Apr-18 20:30N 38°26' W 010°01'611.5
2017-Apr-18 20:00N 38°31' W 010°03'611.5
2017-Apr-18 19:30N 38°37' W 010°05'611.6
2017-Apr-18 19:00N 38°42' W 010°07'611.7
2017-Apr-18 18:30N 38°48' W 010°07'611.4
2017-Apr-18 18:00N 38°54' W 010°07'611.4
2017-Apr-18 17:30N 38°60' W 010°07'611.2
2017-Apr-18 17:00N 39°05' W 010°06'611.7
2017-Apr-18 16:30N 39°11' W 010°07'611.8
2017-Apr-18 16:00N 39°17' W 010°06'611.7
2017-Apr-18 15:30N 39°23' W 010°06'612.1
2017-Apr-18 15:00N 39°29' W 010°06'612.0
2017-Apr-18 14:30N 39°35' W 010°06'  

Dump ship's entire track history